createdAt,value
2023-02-26T00:01:21.684Z,1.01
2023-02-26T00:06:26.239Z,0.97
2023-02-26T00:11:29.810Z,1.15
2023-02-26T00:16:35.084Z,1.29
2023-02-26T00:21:37.677Z,1.64
2023-02-26T00:26:39.739Z,1.90
2023-02-26T00:31:42.051Z,2.02
2023-02-26T00:37:12.081Z,2.10
2023-02-26T00:42:14.657Z,2.17
2023-02-26T00:47:51.176Z,2.23
2023-02-26T00:53:11.815Z,2.26
2023-02-26T00:58:13.572Z,2.27
2023-02-26T01:03:15.880Z,2.36
2023-02-26T01:08:31.490Z,2.17
2023-02-26T01:13:34.124Z,2.07
2023-02-26T01:18:47.239Z,1.82
2023-02-26T01:23:52.125Z,1.64
2023-02-26T01:28:54.146Z,1.42
2023-02-26T01:34:03.680Z,1.32
2023-02-26T01:39:16.027Z,1.07
2023-02-26T01:44:40.259Z,1.11
2023-02-26T01:49:43.294Z,1.00
2023-02-26T01:54:44.916Z,0.91
2023-02-26T01:59:51.927Z,0.72
2023-02-26T02:04:56.965Z,0.65
2023-02-26T02:09:59.931Z,0.74
2023-02-26T02:15:07.678Z,0.41
2023-02-26T02:20:26.489Z,0.14
2023-02-26T02:26:01.766Z,0.19
2023-02-26T02:31:06.622Z,0.33
2023-02-26T02:36:17.032Z,0.43
2023-02-26T02:41:29.422Z,0.56
2023-02-26T02:46:35.530Z,0.57
2023-02-26T02:51:46.845Z,0.64
2023-02-26T02:57:10.541Z,0.58
2023-02-26T03:02:37.038Z,0.72
2023-02-26T03:07:55.484Z,0.79
2023-02-26T03:12:57.155Z,0.86
2023-02-26T03:18:17.467Z,0.64
2023-02-26T03:23:40.626Z,0.66
2023-02-26T03:35:26.233Z,0.58
2023-02-26T03:40:35.813Z,0.43
2023-02-26T03:45:43.507Z,0.50
2023-02-26T03:50:54.740Z,0.40
2023-02-26T03:56:34.311Z,0.52
2023-02-26T04:02:12.010Z,0.33
2023-02-26T04:07:17.588Z,0.54
2023-02-26T04:12:25.716Z,0.36
2023-02-26T04:17:30.460Z,0.42
2023-02-26T04:22:34.722Z,0.22
2023-02-26T04:27:37.030Z,0.19
2023-02-26T04:32:39.305Z,0.15
2023-02-26T04:37:43.524Z,0.04
2023-02-26T04:42:47.509Z,0.12
2023-02-26T04:47:53.876Z,0.05
2023-02-26T04:52:56.498Z,0.00
2023-02-26T04:57:58.992Z,0.07
2023-02-26T05:03:01.045Z,0.25
2023-02-26T05:08:04.347Z,0.19
2023-02-26T05:13:06.983Z,-0.03
2023-02-26T05:18:10.003Z,-0.12
2023-02-26T05:23:11.783Z,-0.21
2023-02-26T05:28:14.822Z,-0.54
2023-02-26T05:33:17.004Z,-0.16
2023-02-26T05:38:19.231Z,0.42
2023-02-26T05:43:21.014Z,0.62
2023-02-26T05:48:23.886Z,0.44
2023-02-26T05:53:26.417Z,0.02
2023-02-26T05:58:31.742Z,-0.02
2023-02-26T06:03:33.984Z,-0.01
2023-02-26T06:08:36.047Z,0.10
2023-02-26T06:13:37.772Z,-0.05
2023-02-26T06:18:39.702Z,-0.11
2023-02-26T06:23:42.065Z,-0.13
2023-02-26T06:28:43.970Z,-0.20
2023-02-26T06:33:45.897Z,-0.13
2023-02-26T06:38:48.065Z,-0.02
2023-02-26T06:43:50.552Z,-0.08
2023-02-26T06:48:52.706Z,0.04
2023-02-26T06:53:54.440Z,-0.05
2023-02-26T06:58:56.824Z,-0.14
2023-02-26T07:03:58.653Z,0.07
2023-02-26T07:09:00.909Z,0.16
2023-02-26T07:14:02.997Z,0.23
2023-02-26T07:19:04.809Z,0.52
2023-02-26T07:24:07.629Z,0.82
2023-02-26T07:29:09.600Z,0.98
2023-02-26T07:34:11.319Z,1.80
2023-02-26T07:39:13.516Z,2.44
2023-02-26T07:44:15.534Z,2.47
2023-02-26T07:49:17.457Z,2.66
2023-02-26T07:54:19.669Z,2.90
2023-02-26T07:59:21.481Z,2.79
2023-02-26T08:04:23.690Z,3.51
2023-02-26T08:09:25.699Z,3.93
2023-02-26T08:14:27.659Z,4.75
2023-02-26T08:19:29.343Z,4.87
2023-02-26T08:24:31.436Z,3.34
2023-02-26T08:29:33.271Z,3.55
2023-02-26T08:34:35.991Z,5.36
2023-02-26T08:39:48.089Z,5.01
2023-02-26T08:44:50.288Z,5.17
2023-02-26T08:49:52.679Z,6.21
2023-02-26T08:55:10.510Z,6.52
2023-02-26T09:00:27.661Z,5.74
2023-02-26T09:05:30.346Z,4.92
2023-02-26T09:10:33.153Z,6.10
2023-02-26T09:15:42.357Z,6.21
2023-02-26T09:20:45.576Z,5.49
2023-02-26T09:25:52.764Z,4.55
2023-02-26T09:30:55.905Z,6.63
2023-02-26T09:35:58.162Z,6.66
2023-02-26T09:41:16.129Z,7.71
2023-02-26T09:46:40.415Z,6.72
2023-02-26T09:51:44.977Z,6.65
2023-02-26T09:56:48.159Z,8.58
2023-02-26T10:02:16.096Z,7.24
2023-02-26T10:07:30.178Z,7.71
2023-02-26T10:12:36.971Z,7.16
2023-02-26T10:17:42.428Z,6.44
2023-02-26T10:23:07.501Z,5.15
2023-02-26T10:28:39.345Z,5.01
2023-02-26T10:33:54.912Z,4.55
2023-02-26T10:39:04.535Z,6.48
2023-02-26T10:44:14.889Z,5.65
2023-02-26T10:49:26.220Z,5.96
2023-02-26T10:54:36.879Z,6.33
2023-02-26T10:59:39.220Z,6.73
2023-02-26T11:04:40.927Z,7.07
2023-02-26T11:09:46.263Z,5.08
2023-02-26T11:14:49.386Z,5.03
2023-02-26T11:20:04.784Z,4.85
2023-02-26T11:25:07.509Z,4.36
2023-02-26T11:30:18.338Z,4.75
2023-02-26T11:35:24.343Z,5.14
2023-02-26T11:40:37.766Z,5.04
2023-02-26T11:45:44.310Z,5.05
2023-02-26T11:50:51.991Z,5.21
2023-02-26T11:56:00.542Z,5.61
2023-02-26T12:01:03.814Z,6.36
2023-02-26T12:06:05.988Z,5.16
2023-02-26T12:11:36.522Z,5.21
2023-02-26T12:16:56.421Z,5.11
2023-02-26T12:22:25.937Z,6.25
2023-02-26T12:27:46.626Z,7.13
2023-02-26T12:33:36.387Z,5.46
2023-02-26T12:39:09.658Z,5.34
2023-02-26T12:44:40.579Z,4.85
2023-02-26T12:50:17.787Z,5.21
2023-02-26T12:55:45.317Z,6.02
2023-02-26T13:01:10.641Z,6.69
2023-02-26T13:06:34.271Z,6.74
2023-02-26T13:11:48.141Z,6.06
2023-02-26T13:17:21.510Z,5.72
2023-02-26T13:22:30.783Z,5.82
2023-02-26T13:27:38.711Z,5.36
2023-02-26T13:32:44.549Z,5.75
2023-02-26T13:37:50.957Z,5.88
2023-02-26T13:43:11.139Z,5.71
2023-02-26T13:48:24.894Z,6.14
2023-02-26T13:53:33.424Z,6.40
2023-02-26T13:58:41.801Z,6.76
2023-02-26T14:03:54.164Z,8.16
2023-02-26T14:08:57.122Z,7.33
2023-02-26T14:14:19.374Z,6.27
2023-02-26T14:19:37.226Z,7.21
2023-02-26T14:24:45.107Z,7.37
2023-02-26T14:29:56.430Z,6.91
2023-02-26T14:35:12.538Z,6.40
2023-02-26T14:40:19.134Z,6.83
2023-02-26T14:45:29.943Z,7.25
2023-02-26T14:51:07.886Z,7.63
2023-02-26T14:56:41.394Z,6.51
2023-02-26T15:02:05.822Z,6.51
2023-02-26T15:07:32.893Z,6.85
2023-02-26T15:12:44.102Z,6.03
2023-02-26T15:18:16.717Z,6.36
2023-02-26T15:23:35.594Z,6.24
2023-02-26T15:28:41.594Z,6.61
2023-02-26T15:33:43.346Z,6.96
2023-02-26T15:38:53.711Z,6.05
2023-02-26T15:44:14.953Z,5.97
2023-02-26T15:49:27.063Z,6.40
2023-02-26T15:54:38.818Z,6.54
2023-02-26T15:59:48.968Z,6.22
2023-02-26T16:04:51.044Z,6.26
2023-02-26T16:09:54.798Z,5.65
2023-02-26T16:15:00.914Z,5.20
2023-02-26T16:20:06.824Z,5.16
2023-02-26T16:25:18.828Z,5.08
2023-02-26T16:30:26.780Z,4.86
2023-02-26T16:35:34.455Z,4.76
2023-02-26T16:45:51.306Z,4.68
2023-02-26T16:51:03.034Z,4.60
2023-02-26T16:56:05.851Z,4.41
2023-02-26T17:01:13.487Z,4.41
2023-02-26T17:06:17.628Z,4.23
2023-02-26T17:11:32.720Z,4.09
2023-02-26T17:16:34.599Z,4.07
2023-02-26T17:21:45.348Z,3.90
2023-02-26T17:26:48.756Z,3.71
2023-02-26T17:31:51.307Z,3.70
2023-02-26T17:36:55.583Z,3.44
2023-02-26T17:41:57.522Z,3.23
2023-02-26T17:46:59.122Z,3.14
2023-02-26T17:52:01.180Z,2.72
2023-02-26T17:57:03.506Z,3.00
2023-02-26T18:02:22.546Z,3.08
2023-02-26T18:07:25.197Z,3.15
2023-02-26T18:12:27.389Z,2.99
2023-02-26T18:17:30.084Z,3.17
2023-02-26T18:22:32.159Z,3.16
2023-02-26T18:27:34.094Z,2.95
2023-02-26T18:32:36.069Z,2.67
2023-02-26T18:37:38.612Z,2.29
2023-02-26T18:42:40.662Z,2.17
2023-02-26T18:47:43.069Z,1.25
2023-02-26T18:52:45.387Z,0.85
2023-02-26T18:57:47.242Z,1.15
2023-02-26T19:02:49.507Z,0.54
2023-02-26T19:07:52.870Z,0.11
2023-02-26T19:12:54.889Z,-0.23
2023-02-26T19:17:57.271Z,-0.51
2023-02-26T19:22:59.171Z,-0.59
2023-02-26T19:28:01.375Z,-0.65
2023-02-26T19:33:03.413Z,-0.00
2023-02-26T19:38:05.740Z,0.24
2023-02-26T19:43:08.556Z,0.18
2023-02-26T19:48:11.671Z,0.17
2023-02-26T19:53:13.858Z,0.03
2023-02-26T19:58:18.374Z,-0.31
2023-02-26T20:03:20.245Z,-0.55
2023-02-26T20:08:24.566Z,-0.67
2023-02-26T20:19:56.129Z,-0.88
2023-02-26T20:24:57.980Z,-0.57
2023-02-26T20:30:01.039Z,0.14
2023-02-26T20:35:05.186Z,-0.15
2023-02-26T20:40:08.305Z,-0.05
2023-02-26T20:45:10.564Z,-0.18
2023-02-26T20:50:12.468Z,-0.16
2023-02-26T20:55:14.528Z,-0.28
2023-02-26T21:00:17.890Z,-0.32
2023-02-26T21:05:20.699Z,-0.41
2023-02-26T21:10:22.797Z,-0.13
2023-02-26T21:15:25.150Z,0.11
2023-02-26T21:20:27.714Z,0.29
2023-02-26T21:25:29.382Z,0.57
2023-02-26T21:30:31.164Z,0.75
2023-02-26T21:35:33.936Z,1.01
2023-02-26T21:40:36.431Z,1.42
2023-02-26T21:45:39.547Z,1.59
2023-02-26T21:50:41.551Z,1.47
2023-02-26T21:55:43.661Z,1.24
2023-02-26T22:00:45.789Z,1.15
2023-02-26T22:05:51.383Z,1.16
2023-02-26T22:10:54.228Z,1.17
2023-02-26T22:15:56.357Z,1.21
2023-02-26T22:20:58.576Z,1.14
2023-02-26T22:26:02.155Z,1.27
2023-02-26T22:37:31.972Z,1.29
2023-02-26T22:42:34.078Z,1.25
2023-02-26T22:47:35.607Z,0.85
2023-02-26T22:52:37.895Z,0.70
2023-02-26T22:57:40.046Z,0.65
2023-02-26T23:02:42.700Z,0.59
2023-02-26T23:07:44.593Z,0.60
2023-02-26T23:12:46.509Z,0.81
2023-02-26T23:17:48.459Z,0.96
2023-02-26T23:22:50.056Z,0.85
2023-02-26T23:27:51.579Z,0.60
2023-02-26T23:32:53.292Z,0.47
2023-02-26T23:37:55.332Z,0.46
2023-02-26T23:42:57.815Z,0.33
2023-02-26T23:48:00.077Z,-0.04
2023-02-26T23:53:02.415Z,-0.15
2023-02-26T23:58:04.486Z,0.12
